Smoke Signal, Arizona
Current Conditions -  °F | °C
As of 1:53 AM on Friday 31 Oct 2014 (Local Time) from KRQE Reporting Station
Clear Clear  
Wind Chill:   Ceiling: Unl
Heat Index:   Visibility: 10mi
Dew Point: -10°   Wind: 0mph
Humidity: 41%   Direction: NA
Pressure: 30.33"   Gusts: NA
Location:  36.1012°N, 109.584°W
Report Text: KRQE 310753Z AUTO 00000KT 10SM CLR 02/M10 A3033 RMK AO2 SLP194 T00221100 TSNO
Loading
Personal Weather Stations






























Interactive Weather Map
Tropical Storm Tracking
New forecast layout! Learn more

10-Day Weather Forecast

Advertisements
Track Severe Weather on mobile